sensor_id;sensor_type;location;lat;lon;timestamp;temperature;humidity
67799;SHT30;54596;43.216;27.904;2023-07-02T00:01:36;22.30;76.63
67799;SHT30;54596;43.216;27.904;2023-07-02T00:04:02;22.26;76.89
67799;SHT30;54596;43.216;27.904;2023-07-02T00:06:27;22.23;77.08
67799;SHT30;54596;43.216;27.904;2023-07-02T00:08:53;22.24;77.17
67799;SHT30;54596;43.216;27.904;2023-07-02T00:11:18;22.21;77.14
67799;SHT30;54596;43.216;27.904;2023-07-02T00:13:44;22.23;77.12
67799;SHT30;54596;43.216;27.904;2023-07-02T00:16:09;22.24;76.78
67799;SHT30;54596;43.216;27.904;2023-07-02T00:18:34;22.27;76.65
67799;SHT30;54596;43.216;27.904;2023-07-02T00:21:01;22.30;76.68
67799;SHT30;54596;43.216;27.904;2023-07-02T00:23:28;22.29;76.81
67799;SHT30;54596;43.216;27.904;2023-07-02T00:25:54;22.29;76.72
67799;SHT30;54596;43.216;27.904;2023-07-02T00:28:20;22.27;76.90
67799;SHT30;54596;43.216;27.904;2023-07-02T00:30:45;22.26;76.98
67799;SHT30;54596;43.216;27.904;2023-07-02T00:33:11;22.21;77.06
67799;SHT30;54596;43.216;27.904;2023-07-02T00:35:36;22.23;77.10
67799;SHT30;54596;43.216;27.904;2023-07-02T00:38:02;22.21;77.38
67799;SHT30;54596;43.216;27.904;2023-07-02T00:40:28;22.17;77.46
67799;SHT30;54596;43.216;27.904;2023-07-02T00:42:53;22.20;77.53
67799;SHT30;54596;43.216;27.904;2023-07-02T00:45:19;22.16;77.75
67799;SHT30;54596;43.216;27.904;2023-07-02T00:47:45;22.20;77.84
67799;SHT30;54596;43.216;27.904;2023-07-02T00:50:11;22.19;78.16
67799;SHT30;54596;43.216;27.904;2023-07-02T00:52:37;22.14;78.36
67799;SHT30;54596;43.216;27.904;2023-07-02T00:55:03;22.12;78.61
67799;SHT30;54596;43.216;27.904;2023-07-02T00:57:29;22.13;79.02
67799;SHT30;54596;43.216;27.904;2023-07-02T00:59:56;22.17;79.12
67799;SHT30;54596;43.216;27.904;2023-07-02T01:02:22;22.17;79.41
67799;SHT30;54596;43.216;27.904;2023-07-02T01:04:51;22.13;79.45
67799;SHT30;54596;43.216;27.904;2023-07-02T01:07:23;22.12;79.94
67799;SHT30;54596;43.216;27.904;2023-07-02T01:09:50;22.08;80.43
67799;SHT30;54596;43.216;27.904;2023-07-02T01:12:17;22.06;80.48
67799;SHT30;54596;43.216;27.904;2023-07-02T01:14:48;22.08;80.78
67799;SHT30;54596;43.216;27.904;2023-07-02T01:17:16;22.08;80.90
67799;SHT30;54596;43.216;27.904;2023-07-02T01:22:10;22.02;81.46
67799;SHT30;54596;43.216;27.904;2023-07-02T01:24:39;21.98;81.10
67799;SHT30;54596;43.216;27.904;2023-07-02T01:27:05;21.98;81.30
67799;SHT30;54596;43.216;27.904;2023-07-02T01:29:31;21.93;81.84
67799;SHT30;54596;43.216;27.904;2023-07-02T01:31:57;21.98;82.96
67799;SHT30;54596;43.216;27.904;2023-07-02T01:34:23;22.00;83.10
67799;SHT30;54596;43.216;27.904;2023-07-02T01:36:49;21.95;83.34
67799;SHT30;54596;43.216;27.904;2023-07-02T01:39:16;21.93;83.33
67799;SHT30;54596;43.216;27.904;2023-07-02T01:41:50;21.93;83.39
67799;SHT30;54596;43.216;27.904;2023-07-02T01:44:16;21.91;83.49
67799;SHT30;54596;43.216;27.904;2023-07-02T01:46:41;21.92;83.76
67799;SHT30;54596;43.216;27.904;2023-07-02T01:49:07;21.91;83.78
67799;SHT30;54596;43.216;27.904;2023-07-02T01:51:33;21.89;84.41
67799;SHT30;54596;43.216;27.904;2023-07-02T01:53:59;21.91;84.46
67799;SHT30;54596;43.216;27.904;2023-07-02T01:56:24;21.89;84.53
67799;SHT30;54596;43.216;27.904;2023-07-02T01:58:50;21.86;84.58
67799;SHT30;54596;43.216;27.904;2023-07-02T02:01:15;21.86;84.34
67799;SHT30;54596;43.216;27.904;2023-07-02T02:03:41;21.82;84.36
67799;SHT30;54596;43.216;27.904;2023-07-02T02:06:07;21.75;84.81
67799;SHT30;54596;43.216;27.904;2023-07-02T02:08:32;21.74;85.05
67799;SHT30;54596;43.216;27.904;2023-07-02T02:10:58;21.74;84.99
67799;SHT30;54596;43.216;27.904;2023-07-02T02:13:26;21.75;85.02
67799;SHT30;54596;43.216;27.904;2023-07-02T02:15:51;21.75;85.44
67799;SHT30;54596;43.216;27.904;2023-07-02T02:18:17;21.74;85.74
67799;SHT30;54596;43.216;27.904;2023-07-02T02:20:42;21.77;86.01
67799;SHT30;54596;43.216;27.904;2023-07-02T02:23:08;21.74;86.23
67799;SHT30;54596;43.216;27.904;2023-07-02T02:25:33;21.74;86.29
67799;SHT30;54596;43.216;27.904;2023-07-02T02:27:59;21.75;86.53
67799;SHT30;54596;43.216;27.904;2023-07-02T02:30:25;21.75;86.74
67799;SHT30;54596;43.216;27.904;2023-07-02T02:32:51;21.79;86.91
67799;SHT30;54596;43.216;27.904;2023-07-02T02:35:16;21.79;86.86
67799;SHT30;54596;43.216;27.904;2023-07-02T02:37:41;21.81;86.93
67799;SHT30;54596;43.216;27.904;2023-07-02T02:40:07;21.79;87.06
67799;SHT30;54596;43.216;27.904;2023-07-02T02:42:34;21.81;87.02
67799;SHT30;54596;43.216;27.904;2023-07-02T02:45:00;21.79;87.10
67799;SHT30;54596;43.216;27.904;2023-07-02T02:47:26;21.82;86.87
67799;SHT30;54596;43.216;27.904;2023-07-02T02:49:51;21.86;86.88
67799;SHT30;54596;43.216;27.904;2023-07-02T02:52:17;21.86;86.87
67799;SHT30;54596;43.216;27.904;2023-07-02T02:54:43;21.91;86.96
67799;SHT30;54596;43.216;27.904;2023-07-02T02:57:08;21.88;87.01
67799;SHT30;54596;43.216;27.904;2023-07-02T02:59:34;21.91;87.16
67799;SHT30;54596;43.216;27.904;2023-07-02T03:02:00;21.93;87.26
67799;SHT30;54596;43.216;27.904;2023-07-02T03:04:25;21.93;87.31
67799;SHT30;54596;43.216;27.904;2023-07-02T03:06:52;21.93;87.22
67799;SHT30;54596;43.216;27.904;2023-07-02T03:09:21;22.05;87.19
67799;SHT30;54596;43.216;27.904;2023-07-02T03:11:47;22.09;87.19
67799;SHT30;54596;43.216;27.904;2023-07-02T03:14:13;22.12;87.10
67799;SHT30;54596;43.216;27.904;2023-07-02T03:16:38;22.19;86.94
67799;SHT30;54596;43.216;27.904;2023-07-02T03:19:04;22.23;86.87
67799;SHT30;54596;43.216;27.904;2023-07-02T03:21:29;22.32;86.81
67799;SHT30;54596;43.216;27.904;2023-07-02T03:23:55;22.36;86.64
67799;SHT30;54596;43.216;27.904;2023-07-02T03:26:21;22.44;86.56
67799;SHT30;54596;43.216;27.904;2023-07-02T03:28:48;22.41;86.55
67799;SHT30;54596;43.216;27.904;2023-07-02T03:31:13;22.48;86.40
67799;SHT30;54596;43.216;27.904;2023-07-02T03:33:39;22.57;86.46
67799;SHT30;54596;43.216;27.904;2023-07-02T03:36:04;22.61;86.43
67799;SHT30;54596;43.216;27.904;2023-07-02T03:38:29;22.62;86.26
67799;SHT30;54596;43.216;27.904;2023-07-02T03:40:55;22.64;86.42
67799;SHT30;54596;43.216;27.904;2023-07-02T03:43:20;22.65;86.34
67799;SHT30;54596;43.216;27.904;2023-07-02T03:45:46;22.71;86.30
67799;SHT30;54596;43.216;27.904;2023-07-02T03:48:11;22.75;86.16
67799;SHT30;54596;43.216;27.904;2023-07-02T03:50:37;22.79;86.04
67799;SHT30;54596;43.216;27.904;2023-07-02T03:53:02;22.85;86.10
67799;SHT30;54596;43.216;27.904;2023-07-02T03:55:28;22.91;85.84
67799;SHT30;54596;43.216;27.904;2023-07-02T03:57:53;22.94;85.56
67799;SHT30;54596;43.216;27.904;2023-07-02T04:00:19;23.00;85.47
67799;SHT30;54596;43.216;27.904;2023-07-02T04:02:44;23.09;85.44
67799;SHT30;54596;43.216;27.904;2023-07-02T04:05:10;23.15;85.29
67799;SHT30;54596;43.216;27.904;2023-07-02T04:07:36;23.19;85.18
67799;SHT30;54596;43.216;27.904;2023-07-02T04:10:01;23.40;84.75
67799;SHT30;54596;43.216;27.904;2023-07-02T04:12:27;23.50;84.47
67799;SHT30;54596;43.216;27.904;2023-07-02T04:14:53;23.46;84.31
67799;SHT30;54596;43.216;27.904;2023-07-02T04:17:18;23.48;84.01
67799;SHT30;54596;43.216;27.904;2023-07-02T04:19:44;23.54;84.32
67799;SHT30;54596;43.216;27.904;2023-07-02T04:22:09;23.64;84.24
67799;SHT30;54596;43.216;27.904;2023-07-02T04:24:35;23.62;83.99
67799;SHT30;54596;43.216;27.904;2023-07-02T04:27:00;23.72;83.48
67799;SHT30;54596;43.216;27.904;2023-07-02T04:29:25;23.75;83.28
67799;SHT30;54596;43.216;27.904;2023-07-02T04:31:51;23.88;82.77
67799;SHT30;54596;43.216;27.904;2023-07-02T04:34:16;24.01;82.20
67799;SHT30;54596;43.216;27.904;2023-07-02T04:36:43;24.01;81.26
67799;SHT30;54596;43.216;27.904;2023-07-02T04:39:09;24.05;81.76
67799;SHT30;54596;43.216;27.904;2023-07-02T04:41:36;24.31;81.60
67799;SHT30;54596;43.216;27.904;2023-07-02T04:44:01;24.47;80.83
67799;SHT30;54596;43.216;27.904;2023-07-02T04:46:27;24.62;80.72
67799;SHT30;54596;43.216;27.904;2023-07-02T04:48:52;24.64;80.42
67799;SHT30;54596;43.216;27.904;2023-07-02T04:51:19;24.61;80.78
67799;SHT30;54596;43.216;27.904;2023-07-02T04:53:45;24.65;80.49
67799;SHT30;54596;43.216;27.904;2023-07-02T04:56:10;24.58;80.59
67799;SHT30;54596;43.216;27.904;2023-07-02T04:58:36;24.58;80.74
67799;SHT30;54596;43.216;27.904;2023-07-02T05:01:01;24.53;81.07
67799;SHT30;54596;43.216;27.904;2023-07-02T05:03:27;24.61;80.94
67799;SHT30;54596;43.216;27.904;2023-07-02T05:05:52;24.45;81.24
67799;SHT30;54596;43.216;27.904;2023-07-02T05:08:18;24.47;81.29
67799;SHT30;54596;43.216;27.904;2023-07-02T05:10:43;24.55;81.19
67799;SHT30;54596;43.216;27.904;2023-07-02T05:13:09;24.69;80.83
67799;SHT30;54596;43.216;27.904;2023-07-02T05:15:34;24.76;80.62
67799;SHT30;54596;43.216;27.904;2023-07-02T05:18:00;24.88;80.43
67799;SHT30;54596;43.216;27.904;2023-07-02T05:20:25;24.92;80.52
67799;SHT30;54596;43.216;27.904;2023-07-02T05:22:51;24.93;80.79
67799;SHT30;54596;43.216;27.904;2023-07-02T05:25:16;24.92;80.81
67799;SHT30;54596;43.216;27.904;2023-07-02T05:27:42;25.05;80.55
67799;SHT30;54596;43.216;27.904;2023-07-02T05:30:08;25.16;80.31
67799;SHT30;54596;43.216;27.904;2023-07-02T05:32:34;25.34;79.99
67799;SHT30;54596;43.216;27.904;2023-07-02T05:35:00;25.62;79.51
67799;SHT30;54596;43.216;27.904;2023-07-02T05:37:25;25.95;78.61
67799;SHT30;54596;43.216;27.904;2023-07-02T05:39:50;27.93;73.49
67799;SHT30;54596;43.216;27.904;2023-07-02T05:42:16;28.10;72.22
67799;SHT30;54596;43.216;27.904;2023-07-02T05:44:41;28.76;70.58
67799;SHT30;54596;43.216;27.904;2023-07-02T05:47:07;27.73;73.01
67799;SHT30;54596;43.216;27.904;2023-07-02T05:49:32;27.31;74.35
67799;SHT30;54596;43.216;27.904;2023-07-02T05:51:58;26.57;76.42
67799;SHT30;54596;43.216;27.904;2023-07-02T05:54:23;26.59;76.65
67799;SHT30;54596;43.216;27.904;2023-07-02T05:56:49;26.95;75.74
67799;SHT30;54596;43.216;27.904;2023-07-02T05:59:14;27.47;74.90
67799;SHT30;54596;43.216;27.904;2023-07-02T06:01:43;27.54;74.13
67799;SHT30;54596;43.216;27.904;2023-07-02T06:04:09;28.06;72.66
67799;SHT30;54596;43.216;27.904;2023-07-02T06:06:34;28.33;72.02
67799;SHT30;54596;43.216;27.904;2023-07-02T06:09:00;28.71;71.15
67799;SHT30;54596;43.216;27.904;2023-07-02T06:11:25;28.69;71.19
67799;SHT30;54596;43.216;27.904;2023-07-02T06:13:51;28.80;71.47
67799;SHT30;54596;43.216;27.904;2023-07-02T06:16:16;29.06;70.85
67799;SHT30;54596;43.216;27.904;2023-07-02T06:18:42;29.48;70.13
67799;SHT30;54596;43.216;27.904;2023-07-02T06:21:07;29.39;69.94
67799;SHT30;54596;43.216;27.904;2023-07-02T06:23:43;28.34;72.69
67799;SHT30;54596;43.216;27.904;2023-07-02T06:26:08;27.73;74.53
67799;SHT30;54596;43.216;27.904;2023-07-02T06:28:34;27.86;74.25
67799;SHT30;54596;43.216;27.904;2023-07-02T06:30:59;27.47;75.21
67799;SHT30;54596;43.216;27.904;2023-07-02T06:33:25;27.57;75.09
67799;SHT30;54596;43.216;27.904;2023-07-02T06:35:50;27.58;75.01
67799;SHT30;54596;43.216;27.904;2023-07-02T06:38:16;27.24;76.06
67799;SHT30;54596;43.216;27.904;2023-07-02T06:40:41;27.24;75.75
67799;SHT30;54596;43.216;27.904;2023-07-02T06:43:07;26.95;76.72
67799;SHT30;54596;43.216;27.904;2023-07-02T06:45:32;27.03;76.69
67799;SHT30;54596;43.216;27.904;2023-07-02T06:47:58;27.02;76.98
67799;SHT30;54596;43.216;27.904;2023-07-02T06:50:23;27.17;75.99
67799;SHT30;54596;43.216;27.904;2023-07-02T06:52:49;27.04;75.93
67799;SHT30;54596;43.216;27.904;2023-07-02T06:55:14;27.10;75.63
67799;SHT30;54596;43.216;27.904;2023-07-02T06:57:43;27.02;76.17
67799;SHT30;54596;43.216;27.904;2023-07-02T07:00:13;27.79;73.83
67799;SHT30;54596;43.216;27.904;2023-07-02T07:02:39;29.57;69.73
67799;SHT30;54596;43.216;27.904;2023-07-02T07:05:05;30.69;67.59
67799;SHT30;54596;43.216;27.904;2023-07-02T07:07:31;31.94;64.24
67799;SHT30;54596;43.216;27.904;2023-07-02T07:09:57;32.05;64.23
67799;SHT30;54596;43.216;27.904;2023-07-02T07:12:22;33.44;62.11
67799;SHT30;54596;43.216;27.904;2023-07-02T07:14:48;33.64;59.84
67799;SHT30;54596;43.216;27.904;2023-07-02T07:17:13;33.95;59.23
67799;SHT30;54596;43.216;27.904;2023-07-02T07:19:39;33.86;58.39
67799;SHT30;54596;43.216;27.904;2023-07-02T07:22:04;32.85;60.58
67799;SHT30;54596;43.216;27.904;2023-07-02T07:24:30;31.02;63.52
67799;SHT30;54596;43.216;27.904;2023-07-02T07:26:55;30.93;64.47
67799;SHT30;54596;43.216;27.904;2023-07-02T07:29:22;30.87;65.45
67799;SHT30;54596;43.216;27.904;2023-07-02T07:31:47;30.86;66.16
67799;SHT30;54596;43.216;27.904;2023-07-02T07:34:12;30.69;66.22
67799;SHT30;54596;43.216;27.904;2023-07-02T07:36:38;30.14;68.01
67799;SHT30;54596;43.216;27.904;2023-07-02T07:39:03;30.34;68.07
67799;SHT30;54596;43.216;27.904;2023-07-02T07:41:29;30.31;67.87
67799;SHT30;54596;43.216;27.904;2023-07-02T07:43:55;29.59;68.67
67799;SHT30;54596;43.216;27.904;2023-07-02T07:46:20;29.35;69.72
67799;SHT30;54596;43.216;27.904;2023-07-02T07:48:46;29.23;70.03
67799;SHT30;54596;43.216;27.904;2023-07-02T07:51:11;29.37;68.20
67799;SHT30;54596;43.216;27.904;2023-07-02T07:53:40;29.78;66.60
67799;SHT30;54596;43.216;27.904;2023-07-02T07:56:06;29.30;67.67
67799;SHT30;54596;43.216;27.904;2023-07-02T07:58:31;29.03;68.89
67799;SHT30;54596;43.216;27.904;2023-07-02T08:01:00;28.33;70.06
67799;SHT30;54596;43.216;27.904;2023-07-02T08:03:25;29.66;67.39
67799;SHT30;54596;43.216;27.904;2023-07-02T08:05:51;29.93;66.97
67799;SHT30;54596;43.216;27.904;2023-07-02T08:08:16;30.02;67.05
67799;SHT30;54596;43.216;27.904;2023-07-02T08:10:41;30.75;65.57
67799;SHT30;54596;43.216;27.904;2023-07-02T08:13:08;31.23;63.24
67799;SHT30;54596;43.216;27.904;2023-07-02T08:15:33;31.68;63.09
67799;SHT30;54596;43.216;27.904;2023-07-02T08:17:59;31.76;62.25
67799;SHT30;54596;43.216;27.904;2023-07-02T08:20:25;31.86;63.13
67799;SHT30;54596;43.216;27.904;2023-07-02T08:22:51;30.34;65.82
67799;SHT30;54596;43.216;27.904;2023-07-02T08:25:17;29.92;65.87
67799;SHT30;54596;43.216;27.904;2023-07-02T08:27:43;29.07;68.47
67799;SHT30;54596;43.216;27.904;2023-07-02T08:30:09;29.96;67.58
67799;SHT30;54596;43.216;27.904;2023-07-02T08:32:35;29.59;69.18
67799;SHT30;54596;43.216;27.904;2023-07-02T08:35:01;29.51;69.31
67799;SHT30;54596;43.216;27.904;2023-07-02T08:37:27;29.31;70.11
67799;SHT30;54596;43.216;27.904;2023-07-02T08:39:52;28.91;72.07
67799;SHT30;54596;43.216;27.904;2023-07-02T08:42:18;28.78;72.18
67799;SHT30;54596;43.216;27.904;2023-07-02T08:44:46;28.41;73.90
67799;SHT30;54596;43.216;27.904;2023-07-02T08:47:15;28.12;75.63
67799;SHT30;54596;43.216;27.904;2023-07-02T08:49:41;28.28;75.63
67799;SHT30;54596;43.216;27.904;2023-07-02T08:52:07;28.37;75.73
67799;SHT30;54596;43.216;27.904;2023-07-02T08:54:33;28.88;73.78
67799;SHT30;54596;43.216;27.904;2023-07-02T08:56:58;28.57;74.52
67799;SHT30;54596;43.216;27.904;2023-07-02T08:59:25;28.62;74.40
67799;SHT30;54596;43.216;27.904;2023-07-02T09:01:52;28.57;75.04
67799;SHT30;54596;43.216;27.904;2023-07-02T09:04:23;28.79;74.17
67799;SHT30;54596;43.216;27.904;2023-07-02T09:07:09;28.25;74.69
67799;SHT30;54596;43.216;27.904;2023-07-02T09:09:48;27.58;76.78
67799;SHT30;54596;43.216;27.904;2023-07-02T09:12:27;27.47;77.52
67799;SHT30;54596;43.216;27.904;2023-07-02T09:17:29;27.07;77.33
67799;SHT30;54596;43.216;27.904;2023-07-02T09:19:55;27.26;78.00
67799;SHT30;54596;43.216;27.904;2023-07-02T09:22:21;26.86;79.17
67799;SHT30;54596;43.216;27.904;2023-07-02T09:24:57;26.79;78.92
67799;SHT30;54596;43.216;27.904;2023-07-02T09:27:41;26.49;80.40
67799;SHT30;54596;43.216;27.904;2023-07-02T09:30:14;26.72;80.31
67799;SHT30;54596;43.216;27.904;2023-07-02T09:32:42;26.26;80.11
67799;SHT30;54596;43.216;27.904;2023-07-02T09:35:07;26.21;81.71
67799;SHT30;54596;43.216;27.904;2023-07-02T09:37:33;26.31;81.51
67799;SHT30;54596;43.216;27.904;2023-07-02T09:39:59;26.44;82.07
67799;SHT30;54596;43.216;27.904;2023-07-02T09:42:27;26.29;82.41
67799;SHT30;54596;43.216;27.904;2023-07-02T09:44:55;26.27;82.93
67799;SHT30;54596;43.216;27.904;2023-07-02T09:47:21;26.27;82.44
67799;SHT30;54596;43.216;27.904;2023-07-02T09:50:00;26.44;81.97
67799;SHT30;54596;43.216;27.904;2023-07-02T09:52:27;26.19;82.24
67799;SHT30;54596;43.216;27.904;2023-07-02T09:54:53;26.44;81.86
67799;SHT30;54596;43.216;27.904;2023-07-02T09:57:19;26.43;82.06
67799;SHT30;54596;43.216;27.904;2023-07-02T09:59:44;26.68;81.53
67799;SHT30;54596;43.216;27.904;2023-07-02T10:02:10;26.76;81.06
67799;SHT30;54596;43.216;27.904;2023-07-02T10:04:46;26.74;80.94
67799;SHT30;54596;43.216;27.904;2023-07-02T10:07:13;26.99;80.55
67799;SHT30;54596;43.216;27.904;2023-07-02T10:09:50;26.67;81.18
67799;SHT30;54596;43.216;27.904;2023-07-02T10:12:20;26.26;81.96
67799;SHT30;54596;43.216;27.904;2023-07-02T10:14:46;25.96;82.40
67799;SHT30;54596;43.216;27.904;2023-07-02T10:17:32;26.20;82.27
67799;SHT30;54596;43.216;27.904;2023-07-02T10:19:59;26.31;81.98
67799;SHT30;54596;43.216;27.904;2023-07-02T10:22:26;26.12;82.62
67799;SHT30;54596;43.216;27.904;2023-07-02T10:24:56;26.19;82.31
67799;SHT30;54596;43.216;27.904;2023-07-02T10:27:41;25.92;82.72
67799;SHT30;54596;43.216;27.904;2023-07-02T10:30:09;25.96;82.38
67799;SHT30;54596;43.216;27.904;2023-07-02T10:32:36;25.78;82.99
67799;SHT30;54596;43.216;27.904;2023-07-02T10:35:23;25.85;82.82
67799;SHT30;54596;43.216;27.904;2023-07-02T10:37:50;25.85;83.02
67799;SHT30;54596;43.216;27.904;2023-07-02T10:40:16;25.67;83.40
67799;SHT30;54596;43.216;27.904;2023-07-02T10:42:48;25.65;83.42
67799;SHT30;54596;43.216;27.904;2023-07-02T10:45:14;25.81;83.14
67799;SHT30;54596;43.216;27.904;2023-07-02T10:47:40;25.60;83.38
67799;SHT30;54596;43.216;27.904;2023-07-02T10:52:40;25.90;82.69
67799;SHT30;54596;43.216;27.904;2023-07-02T10:55:06;26.02;82.33
67799;SHT30;54596;43.216;27.904;2023-07-02T10:57:31;26.12;81.82
67799;SHT30;54596;43.216;27.904;2023-07-02T11:00:04;26.09;81.34
67799;SHT30;54596;43.216;27.904;2023-07-02T11:02:34;25.82;82.52
67799;SHT30;54596;43.216;27.904;2023-07-02T11:05:00;25.76;83.00
67799;SHT30;54596;43.216;27.904;2023-07-02T11:07:25;26.04;82.51
67799;SHT30;54596;43.216;27.904;2023-07-02T11:09:51;26.07;82.78
67799;SHT30;54596;43.216;27.904;2023-07-02T11:12:17;26.04;82.39
67799;SHT30;54596;43.216;27.904;2023-07-02T11:14:42;25.92;82.28
67799;SHT30;54596;43.216;27.904;2023-07-02T11:17:08;25.76;82.63
67799;SHT30;54596;43.216;27.904;2023-07-02T11:19:34;25.97;82.62
67799;SHT30;54596;43.216;27.904;2023-07-02T11:22:00;25.82;82.60
67799;SHT30;54596;43.216;27.904;2023-07-02T11:24:32;26.21;82.10
67799;SHT30;54596;43.216;27.904;2023-07-02T11:26:59;26.04;81.85
67799;SHT30;54596;43.216;27.904;2023-07-02T11:29:26;25.72;83.03
67799;SHT30;54596;43.216;27.904;2023-07-02T11:31:51;25.74;83.18
67799;SHT30;54596;43.216;27.904;2023-07-02T11:34:20;25.71;83.02
67799;SHT30;54596;43.216;27.904;2023-07-02T11:36:46;25.48;82.93
67799;SHT30;54596;43.216;27.904;2023-07-02T11:39:12;25.67;82.86
67799;SHT30;54596;43.216;27.904;2023-07-02T11:41:43;25.61;83.21
67799;SHT30;54596;43.216;27.904;2023-07-02T11:44:08;25.67;83.37
67799;SHT30;54596;43.216;27.904;2023-07-02T11:46:34;25.67;82.93
67799;SHT30;54596;43.216;27.904;2023-07-02T11:49:00;25.86;82.34
67799;SHT30;54596;43.216;27.904;2023-07-02T11:51:26;25.90;82.22
67799;SHT30;54596;43.216;27.904;2023-07-02T11:53:52;26.21;81.66
67799;SHT30;54596;43.216;27.904;2023-07-02T11:56:17;26.30;81.04
67799;SHT30;54596;43.216;27.904;2023-07-02T11:58:43;26.17;81.14
67799;SHT30;54596;43.216;27.904;2023-07-02T12:01:08;26.31;80.89
67799;SHT30;54596;43.216;27.904;2023-07-02T12:03:34;26.40;80.86
67799;SHT30;54596;43.216;27.904;2023-07-02T12:05:59;26.43;81.04
67799;SHT30;54596;43.216;27.904;2023-07-02T12:08:25;26.38;80.97
67799;SHT30;54596;43.216;27.904;2023-07-02T12:10:50;26.17;80.74
67799;SHT30;54596;43.216;27.904;2023-07-02T12:13:16;25.95;80.78
67799;SHT30;54596;43.216;27.904;2023-07-02T12:15:41;26.20;80.32
67799;SHT30;54596;43.216;27.904;2023-07-02T12:18:08;26.07;80.70
67799;SHT30;54596;43.216;27.904;2023-07-02T12:20:33;26.38;80.30
67799;SHT30;54596;43.216;27.904;2023-07-02T12:22:59;26.59;79.79
67799;SHT30;54596;43.216;27.904;2023-07-02T12:25:24;26.59;79.41
67799;SHT30;54596;43.216;27.904;2023-07-02T12:27:50;26.31;79.84
67799;SHT30;54596;43.216;27.904;2023-07-02T12:30:15;26.52;80.08
67799;SHT30;54596;43.216;27.904;2023-07-02T12:32:43;26.52;79.55
67799;SHT30;54596;43.216;27.904;2023-07-02T12:35:09;26.43;79.70
67799;SHT30;54596;43.216;27.904;2023-07-02T12:37:34;26.21;79.65
67799;SHT30;54596;43.216;27.904;2023-07-02T12:40:00;26.43;79.76
67799;SHT30;54596;43.216;27.904;2023-07-02T12:42:26;26.44;79.95
67799;SHT30;54596;43.216;27.904;2023-07-02T12:44:52;26.47;79.93
67799;SHT30;54596;43.216;27.904;2023-07-02T12:47:17;26.40;79.49
67799;SHT30;54596;43.216;27.904;2023-07-02T12:49:43;26.16;79.85
67799;SHT30;54596;43.216;27.904;2023-07-02T12:52:08;26.10;80.25
67799;SHT30;54596;43.216;27.904;2023-07-02T12:54:34;26.09;80.57
67799;SHT30;54596;43.216;27.904;2023-07-02T12:56:59;26.02;80.47
67799;SHT30;54596;43.216;27.904;2023-07-02T12:59:25;25.95;80.49
67799;SHT30;54596;43.216;27.904;2023-07-02T13:01:50;25.81;81.12
67799;SHT30;54596;43.216;27.904;2023-07-02T13:04:16;25.89;81.12
67799;SHT30;54596;43.216;27.904;2023-07-02T13:06:41;26.02;81.08
67799;SHT30;54596;43.216;27.904;2023-07-02T13:09:07;26.14;80.73
67799;SHT30;54596;43.216;27.904;2023-07-02T13:11:33;26.00;80.59
67799;SHT30;54596;43.216;27.904;2023-07-02T13:13:59;25.92;80.64
67799;SHT30;54596;43.216;27.904;2023-07-02T13:16:24;25.97;80.82
67799;SHT30;54596;43.216;27.904;2023-07-02T13:18:50;26.04;80.93
67799;SHT30;54596;43.216;27.904;2023-07-02T13:21:15;26.13;80.50
67799;SHT30;54596;43.216;27.904;2023-07-02T13:23:41;26.03;80.78
67799;SHT30;54596;43.216;27.904;2023-07-02T13:26:06;26.03;81.08
67799;SHT30;54596;43.216;27.904;2023-07-02T13:28:32;25.68;81.69
67799;SHT30;54596;43.216;27.904;2023-07-02T13:30:57;25.54;82.20
67799;SHT30;54596;43.216;27.904;2023-07-02T13:33:23;25.57;82.25
67799;SHT30;54596;43.216;27.904;2023-07-02T13:35:48;25.61;82.44
67799;SHT30;54596;43.216;27.904;2023-07-02T13:38:14;25.52;82.76
67799;SHT30;54596;43.216;27.904;2023-07-02T13:40:40;25.62;82.70
67799;SHT30;54596;43.216;27.904;2023-07-02T13:43:05;25.51;82.53
67799;SHT30;54596;43.216;27.904;2023-07-02T13:45:31;25.44;82.62
67799;SHT30;54596;43.216;27.904;2023-07-02T13:47:56;25.64;82.46
67799;SHT30;54596;43.216;27.904;2023-07-02T13:50:22;25.69;81.95
67799;SHT30;54596;43.216;27.904;2023-07-02T13:52:48;25.78;82.01
67799;SHT30;54596;43.216;27.904;2023-07-02T13:55:15;25.54;82.61
67799;SHT30;54596;43.216;27.904;2023-07-02T13:57:40;25.43;83.35
67799;SHT30;54596;43.216;27.904;2023-07-02T14:00:07;25.40;83.22
67799;SHT30;54596;43.216;27.904;2023-07-02T14:02:32;25.45;83.12
67799;SHT30;54596;43.216;27.904;2023-07-02T14:04:58;25.54;83.12
67799;SHT30;54596;43.216;27.904;2023-07-02T14:07:24;25.68;82.74
67799;SHT30;54596;43.216;27.904;2023-07-02T14:09:50;25.75;81.96
67799;SHT30;54596;43.216;27.904;2023-07-02T14:12:16;25.61;81.81
67799;SHT30;54596;43.216;27.904;2023-07-02T14:14:41;25.45;82.43
67799;SHT30;54596;43.216;27.904;2023-07-02T14:17:07;25.47;82.43
67799;SHT30;54596;43.216;27.904;2023-07-02T14:19:33;25.37;82.74
67799;SHT30;54596;43.216;27.904;2023-07-02T14:21:58;25.17;83.43
67799;SHT30;54596;43.216;27.904;2023-07-02T14:24:24;25.16;83.81
67799;SHT30;54596;43.216;27.904;2023-07-02T14:26:51;25.26;83.96
67799;SHT30;54596;43.216;27.904;2023-07-02T14:29:16;25.34;83.85
67799;SHT30;54596;43.216;27.904;2023-07-02T14:31:42;25.45;83.67
67799;SHT30;54596;43.216;27.904;2023-07-02T14:34:07;25.57;83.39
67799;SHT30;54596;43.216;27.904;2023-07-02T14:36:33;25.54;83.39
67799;SHT30;54596;43.216;27.904;2023-07-02T14:38:58;25.52;83.25
67799;SHT30;54596;43.216;27.904;2023-07-02T14:41:24;25.40;82.40
67799;SHT30;54596;43.216;27.904;2023-07-02T14:43:50;25.37;83.32
67799;SHT30;54596;43.216;27.904;2023-07-02T14:46:15;25.35;83.30
67799;SHT30;54596;43.216;27.904;2023-07-02T14:48:40;25.35;83.31
67799;SHT30;54596;43.216;27.904;2023-07-02T14:51:06;25.44;83.44
67799;SHT30;54596;43.216;27.904;2023-07-02T14:53:33;25.48;83.25
67799;SHT30;54596;43.216;27.904;2023-07-02T14:56:01;25.61;82.99
67799;SHT30;54596;43.216;27.904;2023-07-02T14:58:27;25.74;82.46
67799;SHT30;54596;43.216;27.904;2023-07-02T15:00:55;25.64;82.79
67799;SHT30;54596;43.216;27.904;2023-07-02T15:03:22;25.62;82.62
67799;SHT30;54596;43.216;27.904;2023-07-02T15:05:49;25.47;83.39
67799;SHT30;54596;43.216;27.904;2023-07-02T15:08:16;25.33;83.14
67799;SHT30;54596;43.216;27.904;2023-07-02T15:10:45;25.34;83.61
67799;SHT30;54596;43.216;27.904;2023-07-02T15:13:11;25.30;84.00
67799;SHT30;54596;43.216;27.904;2023-07-02T15:15:37;25.38;83.59
67799;SHT30;54596;43.216;27.904;2023-07-02T15:18:05;25.37;83.28